Time;durP1;ratioP1;P1;durP2;ratioP2;P2;SDS_P1;SDS_P2;PMS_P1;PMS_P2;Temp;Humidity;BMP_temperature;BMP_pressure;BME280_temperature;BME280_humidity;BME280_pressure;Samples;Min_cycle;Max_cycle;Signal;HPM_P1;HPM_P2
2023/03/27 00:01:42;;;;;;;0.20;0.20;;;;;;;6.43;100.00;95762.31;5053783;28;20211;-56
2023/03/27 00:04:09;;;;;;;1.03;0.50;;;;;;;6.40;100.00;95770.47;5052166;28;20227;-56
2023/03/27 00:06:36;;;;;;;0.27;0.27;;;;;;;6.41;100.00;95774.78;5053019;28;20230;-56
2023/03/27 00:09:03;;;;;;;0.30;0.30;;;;;;;6.49;100.00;95767.00;5053198;28;20211;-55
2023/03/27 00:11:32;;;;;;;1.07;0.40;;;;;;;6.48;100.00;95775.88;5053298;28;20207;-55
2023/03/27 00:13:58;;;;;;;0.57;0.37;;;;;;;6.52;100.00;95779.84;5052293;28;20219;-56
2023/03/27 00:16:26;;;;;;;0.33;0.33;;;;;;;6.52;100.00;95782.50;5053130;28;20531;-56
2023/03/27 00:18:53;;;;;;;1.27;0.47;;;;;;;6.49;100.00;95783.59;5052219;28;20709;-56
2023/03/27 00:21:21;;;;;;;0.40;0.40;;;;;;;6.48;100.00;95775.88;5053130;28;20199;-56
2023/03/27 00:23:47;;;;;;;0.83;0.40;;;;;;;6.42;100.00;95787.75;5052391;28;20209;-56
2023/03/27 00:26:15;;;;;;;0.67;0.43;;;;;;;6.43;100.00;95783.34;5052804;28;20253;-56
2023/03/27 00:28:43;;;;;;;0.90;0.50;;;;;;;6.42;100.00;95793.00;5052741;28;20192;-55
2023/03/27 00:31:12;;;;;;;0.33;0.33;;;;;;;6.44;100.00;95792.88;5052806;28;20206;-56
2023/03/27 00:33:40;;;;;;;0.37;0.37;;;;;;;6.47;100.00;95792.59;5052775;28;20203;-56
2023/03/27 00:36:08;;;;;;;0.87;0.57;;;;;;;6.41;100.00;95801.03;5051873;28;20214;-55
2023/03/27 00:38:35;;;;;;;0.50;0.50;;;;;;;6.33;100.00;95798.25;5051704;28;20206;-56
2023/03/27 00:41:03;;;;;;;1.27;0.60;;;;;;;6.34;100.00;95799.94;5057914;28;20302;-59
2023/03/27 00:43:33;;;;;;;0.47;0.47;;;;;;;6.34;100.00;95805.19;5057864;28;20207;-56
2023/03/27 00:46:03;;;;;;;0.40;0.40;;;;;;;6.36;100.00;95808.50;5055510;28;20226;-56
2023/03/27 00:48:32;;;;;;;0.40;0.40;;;;;;;6.31;100.00;95810.69;5052858;28;20525;-56
2023/03/27 00:50:59;;;;;;;0.60;0.50;;;;;;;6.32;100.00;95807.09;5052140;28;20202;-56
2023/03/27 00:53:28;;;;;;;0.97;0.60;;;;;;;6.29;100.00;95810.00;5052195;28;20229;-55
2023/03/27 00:55:56;;;;;;;0.93;0.67;;;;;;;6.29;100.00;95813.47;5052450;28;20215;-55
2023/03/27 00:58:28;;;;;;;0.50;0.50;;;;;;;6.23;100.00;95806.13;5052071;28;20639;-56
2023/03/27 01:00:56;;;;;;;0.70;0.70;;;;;;;6.24;100.00;95810.41;5051586;28;20277;-55
2023/03/27 01:03:26;;;;;;;0.60;0.60;;;;;;;6.23;100.00;95813.19;5051969;28;20639;-56
2023/03/27 01:05:53;;;;;;;0.60;0.60;;;;;;;6.25;100.00;95806.81;5051844;28;20272;-55
2023/03/27 01:08:20;;;;;;;0.50;0.50;;;;;;;6.33;100.00;95816.66;5052248;28;20207;-56
2023/03/27 01:10:53;;;;;;;0.70;0.70;;;;;;;6.30;100.00;95819.53;5052307;28;20543;-55
2023/03/27 01:13:35;;;;;;;0.60;0.60;;;;;;;6.27;100.00;95809.31;5051128;28;20203;-56
2023/03/27 01:16:05;;;;;;;1.17;0.90;;;;;;;6.41;100.00;95803.66;5051394;28;20180;-56
2023/03/27 01:18:41;;;;;;;1.50;0.97;;;;;;;6.42;100.00;95797.41;5050532;28;20647;-56
2023/03/27 01:21:40;;;;;;;0.97;0.80;;;;;;;6.39;100.00;95797.69;5051752;28;20206;-56
2023/03/27 01:24:42;;;;;;;0.70;0.70;;;;;;;6.41;100.00;95807.09;5027120;28;20222;-56
2023/03/27 01:27:17;;;;;;;1.30;0.70;;;;;;;6.42;100.00;95807.94;5050202;28;20205;-56
2023/03/27 01:30:00;;;;;;;0.87;0.80;;;;;;;6.37;100.00;95811.00;5052329;28;20207;-56
2023/03/27 01:32:52;;;;;;;1.13;0.90;;;;;;;6.33;100.00;95819.28;5052088;28;20215;-56
2023/03/27 01:35:32;;;;;;;0.80;0.80;;;;;;;6.37;100.00;95824.13;5050792;28;20191;-56
2023/03/27 01:38:12;;;;;;;1.27;0.87;;;;;;;6.44;100.00;95843.59;5051646;28;20258;-55
2023/03/27 01:40:41;;;;;;;0.63;0.60;;;;;;;6.37;100.00;95828.53;5051533;28;20218;-56
2023/03/27 01:43:11;;;;;;;0.77;0.70;;;;;;;6.40;100.00;95836.97;5051426;28;20207;-56
2023/03/27 01:45:42;;;;;;;0.77;0.77;;;;;;;6.38;100.00;95843.31;5051345;28;20226;-56
2023/03/27 01:48:13;;;;;;;0.77;0.77;;;;;;;6.39;100.00;95850.22;5050814;28;20227;-56
2023/03/27 01:50:43;;;;;;;1.33;0.90;;;;;;;6.46;100.00;95844.28;5051049;28;20202;-56
2023/03/27 01:53:12;;;;;;;1.73;0.90;;;;;;;6.42;100.00;95855.19;5051356;28;20195;-55
2023/03/27 01:55:44;;;;;;;1.87;0.80;;;;;;;6.48;100.00;95854.66;5051189;28;20203;-56
2023/03/27 01:58:13;;;;;;;1.03;0.70;;;;;;;6.57;100.00;95848.56;5051441;28;20196;-57
2023/03/27 02:00:43;;;;;;;0.93;0.90;;;;;;;6.65;100.00;95859.22;5050707;28;20235;-56
2023/03/27 02:03:13;;;;;;;1.13;0.90;;;;;;;6.57;100.00;95858.25;5050813;28;20199;-57
2023/03/27 02:05:44;;;;;;;1.50;1.13;;;;;;;6.59;100.00;95859.75;5050572;28;20605;-55
2023/03/27 02:08:15;;;;;;;1.37;0.70;;;;;;;6.71;100.00;95870.97;5051480;28;20195;-56
2023/03/27 02:10:48;;;;;;;0.57;0.57;;;;;;;6.67;100.00;95872.22;5050931;28;20229;-56
2023/03/27 02:13:20;;;;;;;0.70;0.70;;;;;;;6.64;100.00;95885.63;5051323;28;20527;-55
2023/03/27 02:15:48;;;;;;;0.80;0.70;;;;;;;6.69;100.00;95889.53;5051552;28;20184;-55
2023/03/27 02:18:19;;;;;;;0.87;0.87;;;;;;;6.68;100.00;95882.59;5051417;28;20742;-56
2023/03/27 02:20:45;;;;;;;0.93;0.90;;;;;;;6.71;100.00;95892.00;5052718;28;20207;-56
2023/03/27 02:23:12;;;;;;;1.07;0.80;;;;;;;6.68;100.00;95890.47;5051102;28;20199;-56
2023/03/27 02:25:40;;;;;;;0.50;0.50;;;;;;;6.74;100.00;95903.06;5051160;28;20234;-57
2023/03/27 02:28:21;;;;;;;0.80;0.60;;;;;;;6.68;100.00;95895.72;5051218;28;20203;-57
2023/03/27 02:30:55;;;;;;;1.17;0.83;;;;;;;6.63;100.00;95895.31;5055386;28;20615;-57
2023/03/27 02:33:27;;;;;;;0.83;0.83;;;;;;;6.67;100.00;95887.97;5068672;28;20222;-58
2023/03/27 02:35:59;;;;;;;0.57;0.57;;;;;;;6.71;100.00;95892.81;5069598;28;20230;-56
2023/03/27 02:38:32;;;;;;;1.13;0.70;;;;;;;6.72;100.00;95905.00;5071308;28;20205;-59
2023/03/27 02:41:07;;;;;;;1.13;0.90;;;;;;;6.67;100.00;95903.75;5055976;28;20577;-56
2023/03/27 02:43:37;;;;;;;0.50;0.50;;;;;;;6.71;100.00;95913.00;5054943;28;20189;-55
2023/03/27 02:46:06;;;;;;;1.23;0.70;;;;;;;6.74;100.00;95910.09;5053992;28;20623;-56
2023/03/27 02:48:35;;;;;;;1.10;0.80;;;;;;;6.73;100.00;95911.91;5054658;28;20211;-55
2023/03/27 02:51:06;;;;;;;0.50;0.50;;;;;;;6.67;100.00;95906.38;5054062;28;20635;-56
2023/03/27 02:53:37;;;;;;;0.47;0.47;;;;;;;6.65;100.00;95909.16;5053681;28;20206;-55
2023/03/27 02:56:07;;;;;;;1.33;0.60;;;;;;;6.62;100.00;95913.84;5054707;28;20283;-56
2023/03/27 02:58:39;;;;;;;1.43;0.80;;;;;;;6.71;100.00;95923.53;5054448;28;20260;-55
2023/03/27 03:01:09;;;;;;;0.47;0.47;;;;;;;6.61;100.00;95934.03;5054076;28;20203;-56
2023/03/27 03:03:38;;;;;;;1.07;0.53;;;;;;;6.69;100.00;95931.56;5053835;28;20272;-56
2023/03/27 03:06:06;;;;;;;0.83;0.60;;;;;;;6.72;100.00;95935.69;5054240;28;20227;-56
2023/03/27 03:08:37;;;;;;;0.50;0.50;;;;;;;6.74;100.00;95947.72;5054297;28;20584;-56
2023/03/27 03:11:04;;;;;;;1.03;0.70;;;;;;;6.61;100.00;95944.53;5054743;28;20743;-56
2023/03/27 03:13:31;;;;;;;1.40;0.73;;;;;;;6.63;100.00;95952.25;5054477;28;20302;-57
2023/03/27 03:15:59;;;;;;;1.30;0.90;;;;;;;6.66;100.00;95971.22;5054676;28;20215;-55
2023/03/27 03:18:26;;;;;;;0.70;0.70;;;;;;;6.69;100.00;95968.34;5053629;28;20238;-56
2023/03/27 03:20:54;;;;;;;1.70;0.80;;;;;;;6.74;100.00;95974.00;5053212;28;20210;-55
2023/03/27 03:23:21;;;;;;;1.07;0.97;;;;;;;6.73;100.00;95988.09;5054162;28;20211;-56
2023/03/27 03:25:49;;;;;;;0.83;0.80;;;;;;;6.69;100.00;95984.09;5053782;28;20582;-55
2023/03/27 03:28:17;;;;;;;1.33;0.97;;;;;;;6.74;100.00;95987.13;5053913;28;20207;-55
2023/03/27 03:30:47;;;;;;;1.00;0.87;;;;;;;6.72;100.00;95991.72;5053941;28;20233;-56
2023/03/27 03:33:15;;;;;;;0.80;0.80;;;;;;;6.66;100.00;95994.84;5053439;28;20293;-56
2023/03/27 03:35:45;;;;;;;0.90;0.90;;;;;;;6.67;100.00;95996.53;5053408;28;20204;-56
2023/03/27 03:38:12;;;;;;;1.03;0.93;;;;;;;6.66;100.00;95992.22;5053869;28;20291;-55
2023/03/27 03:40:38;;;;;;;2.20;1.40;;;;;;;6.64;100.00;95998.59;5054031;28;20203;-56
2023/03/27 03:43:05;;;;;;;1.50;1.40;;;;;;;6.69;100.00;95999.03;5053967;28;20222;-55
2023/03/27 03:45:31;;;;;;;1.63;1.53;;;;;;;6.60;100.00;96005.06;5053853;28;20580;-56
2023/03/27 03:47:58;;;;;;;1.60;1.50;;;;;;;6.69;100.00;96004.28;5052658;28;20265;-56
2023/03/27 03:50:27;;;;;;;1.53;1.43;;;;;;;6.71;100.00;96018.09;5052330;28;20226;-55
2023/03/27 03:52:56;;;;;;;1.40;1.30;;;;;;;6.62;100.00;96021.53;5053230;28;20215;-56
2023/03/27 03:55:24;;;;;;;1.73;1.63;;;;;;;6.63;100.00;96031.91;5053339;28;20297;-55
2023/03/27 03:57:50;;;;;;;1.77;1.67;;;;;;;6.65;100.00;96037.03;5053575;28;20279;-56
2023/03/27 04:00:17;;;;;;;2.53;2.33;;;;;;;6.67;100.00;96041.19;5053129;28;20203;-56
2023/03/27 04:02:44;;;;;;;2.23;2.03;;;;;;;6.72;100.00;96039.00;5053739;28;20547;-55
2023/03/27 04:05:11;;;;;;;2.37;2.17;;;;;;;6.72;100.00;96041.63;5052913;28;20199;-55
2023/03/27 04:07:39;;;;;;;2.03;1.83;;;;;;;6.66;100.00;96043.97;5053274;28;20711;-56
2023/03/27 04:10:08;;;;;;;2.20;2.00;;;;;;;6.63;100.00;96045.03;5052578;28;20211;-56
2023/03/27 04:12:34;;;;;;;2.00;1.77;;;;;;;6.59;100.00;96067.28;5053357;28;20211;-56
2023/03/27 04:15:01;;;;;;;2.50;2.30;;;;;;;6.61;100.00;96054.03;5053253;28;20209;-55
2023/03/27 04:17:27;;;;;;;2.60;2.30;;;;;;;6.58;100.00;96055.13;5053397;28;20208;-57
2023/03/27 04:19:54;;;;;;;2.63;2.43;;;;;;;6.62;100.00;96069.66;5052858;28;20214;-56
2023/03/27 04:22:22;;;;;;;3.20;3.00;;;;;;;6.60;100.00;96071.56;5052756;28;20227;-55
2023/03/27 04:24:52;;;;;;;2.80;2.60;;;;;;;6.66;100.00;96073.66;5052788;28;20215;-56
2023/03/27 04:27:21;;;;;;;3.07;2.20;;;;;;;6.53;100.00;96088.00;5052811;28;20211;-56
2023/03/27 04:29:47;;;;;;;2.80;2.60;;;;;;;6.47;100.00;96095.47;5052275;28;20706;-56
2023/03/27 04:32:17;;;;;;;2.80;2.60;;;;;;;6.47;100.00;96100.72;5053113;28;20207;-57
2023/03/27 04:34:44;;;;;;;2.90;2.70;;;;;;;6.42;100.00;96097.63;5052358;28;20258;-56
2023/03/27 04:37:11;;;;;;;2.50;2.30;;;;;;;6.48;100.00;96102.34;5052354;28;20261;-56
2023/03/27 04:39:41;;;;;;;3.67;2.57;;;;;;;6.52;100.00;96105.53;5052527;28;20203;-56
2023/03/27 04:42:12;;;;;;;2.77;2.43;;;;;;;6.51;100.00;96111.78;5052516;28;20199;-56
2023/03/27 04:44:39;;;;;;;2.73;2.53;;;;;;;6.57;100.00;96113.88;5052192;28;20213;-56
2023/03/27 04:47:06;;;;;;;2.77;2.57;;;;;;;6.51;100.00;96111.78;5052420;28;20230;-56
2023/03/27 04:49:37;;;;;;;2.90;2.70;;;;;;;6.48;100.00;96127.81;5066962;28;20214;-55
2023/03/27 04:52:05;;;;;;;3.00;2.70;;;;;;;6.47;100.00;96137.47;5076530;28;20187;-56
2023/03/27 04:54:32;;;;;;;2.53;2.10;;;;;;;6.50;100.00;96147.72;5075676;28;20222;-55
2023/03/27 04:57:00;;;;;;;2.40;2.30;;;;;;;6.55;100.00;96155.22;5075238;28;20184;-55
2023/03/27 04:59:31;;;;;;;3.00;1.70;;;;;;;6.58;100.00;96154.13;5068404;28;20203;-56
2023/03/27 05:01:58;;;;;;;1.60;1.30;;;;;;;6.58;100.00;96160.22;5052770;28;20337;-56
2023/03/27 05:04:26;;;;;;;1.30;1.30;;;;;;;6.54;100.00;96164.06;5052751;28;20513;-56
2023/03/27 05:06:55;;;;;;;1.30;1.30;;;;;;;6.48;100.00;96165.38;5051687;28;20686;-56
2023/03/27 05:09:22;;;;;;;1.70;1.60;;;;;;;6.43;100.00;96166.75;5052606;28;20257;-56
2023/03/27 05:11:56;;;;;;;1.20;1.20;;;;;;;6.42;100.00;96176.41;5050859;28;20600;-57
2023/03/27 05:14:23;;;;;;;1.17;1.17;;;;;;;6.35;100.00;96180.53;5052490;28;20195;-56
2023/03/27 05:16:51;;;;;;;1.07;1.07;;;;;;;6.33;100.00;96192.13;5051815;28;20215;-56
2023/03/27 05:19:19;;;;;;;0.80;0.80;;;;;;;6.28;100.00;96189.03;5051819;28;20723;-57
2023/03/27 05:21:46;;;;;;;0.93;0.93;;;;;;;6.26;100.00;96201.47;5051656;28;20277;-56
2023/03/27 05:24:12;;;;;;;0.70;0.70;;;;;;;6.24;100.00;96187.63;5052542;28;20241;-56
2023/03/27 05:26:39;;;;;;;0.80;0.80;;;;;;;6.16;100.00;96198.78;5051757;28;20662;-56
2023/03/27 05:29:07;;;;;;;0.90;0.90;;;;;;;6.13;100.00;96206.09;5051933;28;20195;-56
2023/03/27 05:31:34;;;;;;;0.73;0.73;;;;;;;6.12;100.00;96217.53;5051224;28;20218;-57
2023/03/27 05:34:05;;;;;;;0.77;0.70;;;;;;;6.20;100.00;96212.50;5051562;28;20501;-57
2023/03/27 05:36:34;;;;;;;0.60;0.60;;;;;;;6.16;100.00;96224.19;5051307;28;20203;-58
2023/03/27 05:39:03;;;;;;;0.93;0.90;;;;;;;6.18;100.00;96217.03;5051651;28;20207;-57
2023/03/27 05:41:30;;;;;;;0.60;0.60;;;;;;;6.15;100.00;96233.88;5050048;28;20207;-56
2023/03/27 05:43:56;;;;;;;0.60;0.60;;;;;;;6.10;100.00;96233.41;5063247;28;20547;-57
2023/03/27 05:46:22;;;;;;;0.60;0.60;;;;;;;6.00;100.00;96243.81;5061213;28;20234;-57
2023/03/27 05:48:49;;;;;;;0.70;0.70;;;;;;;6.02;100.00;96251.59;5058620;28;20512;-57
2023/03/27 05:51:18;;;;;;;0.80;0.80;;;;;;;6.00;100.00;96259.56;5051401;28;20612;-57
2023/03/27 05:53:44;;;;;;;0.73;0.73;;;;;;;5.94;100.00;96267.94;5051331;28;20222;-57
2023/03/27 05:56:11;;;;;;;0.57;0.57;;;;;;;5.99;100.00;96267.56;5051618;28;20191;-57
2023/03/27 05:58:38;;;;;;;0.70;0.70;;;;;;;6.00;100.00;96277.09;5051365;28;20211;-57
2023/03/27 06:01:05;;;;;;;0.47;0.47;;;;;;;6.01;100.00;96284.03;5051136;28;20900;-57
2023/03/27 06:03:33;;;;;;;0.70;0.70;;;;;;;6.02;100.00;96290.13;5051543;28;20512;-57
2023/03/27 06:06:00;;;;;;;0.80;0.80;;;;;;;6.36;100.00;96295.13;5050944;28;20222;-56
2023/03/27 06:08:28;;;;;;;1.50;1.20;;;;;;;6.75;100.00;96304.13;5050922;28;20199;-62
2023/03/27 06:10:56;;;;;;;0.90;0.90;;;;;;;6.90;100.00;96308.09;5051022;28;20342;-55
2023/03/27 06:13:27;;;;;;;0.90;0.90;;;;;;;6.98;100.00;96305.63;5050943;28;20210;-54
2023/03/27 06:15:56;;;;;;;1.03;1.03;;;;;;;7.03;100.00;96318.41;5050201;28;20195;-53
2023/03/27 06:18:22;;;;;;;0.70;0.70;;;;;;;7.12;100.00;96328.13;5051408;28;20257;-54
2023/03/27 06:20:51;;;;;;;0.93;0.93;;;;;;;7.14;100.00;96326.22;5050864;28;20218;-55
2023/03/27 06:23:17;;;;;;;0.93;0.93;;;;;;;7.63;100.00;96336.00;5049949;28;20213;-55
2023/03/27 06:25:47;;;;;;;1.03;1.03;;;;;;;7.60;100.00;96333.66;5049810;28;20210;-53
2023/03/27 06:28:13;;;;;;;1.10;1.10;;;;;;;7.57;100.00;96336.56;5050522;28;20237;-56
2023/03/27 06:30:41;;;;;;;1.20;1.20;;;;;;;7.34;94.57;96337.66;5051284;28;20558;-55
2023/03/27 06:33:08;;;;;;;2.90;1.50;;;;;;;7.05;95.36;96361.16;5050796;28;20203;-55
2023/03/27 06:35:36;;;;;;;1.30;1.20;;;;;;;6.91;97.40;96366.72;5051093;28;20226;-56
2023/03/27 06:38:04;;;;;;;1.53;1.40;;;;;;;6.88;97.33;96378.34;5050866;28;20221;-55
2023/03/27 06:40:34;;;;;;;1.53;1.40;;;;;;;6.75;97.34;96388.22;5050747;28;20627;-55
2023/03/27 06:43:04;;;;;;;1.50;1.40;;;;;;;6.73;96.44;96389.31;5050332;28;20210;-55
2023/03/27 06:45:36;;;;;;;1.53;1.43;;;;;;;6.76;97.98;96395.13;5052523;28;20211;-55
2023/03/27 06:48:04;;;;;;;1.47;1.43;;;;;;;6.72;98.86;96403.41;5053443;28;20265;-55
2023/03/27 06:50:35;;;;;;;1.77;1.67;;;;;;;6.76;96.86;96410.91;5051420;28;20222;-55
2023/03/27 06:53:02;;;;;;;2.53;2.33;;;;;;;6.64;95.44;96426.81;5050247;28;20202;-54
2023/03/27 06:55:31;;;;;;;1.93;1.77;;;;;;;6.61;96.76;96427.91;5050097;28;20652;-56
2023/03/27 06:57:59;;;;;;;1.73;1.47;;;;;;;6.47;97.02;96431.66;5049809;28;20617;-56
2023/03/27 07:00:29;;;;;;;1.70;1.60;;;;;;;6.58;98.11;96441.31;5049923;28;20289;-56
2023/03/27 07:02:58;;;;;;;1.70;1.60;;;;;;;6.59;97.76;96448.19;5050064;28;20195;-56
2023/03/27 07:05:26;;;;;;;2.30;2.10;;;;;;;6.62;98.61;96461.13;5048880;28;20269;-56
2023/03/27 07:07:53;;;;;;;1.73;1.63;;;;;;;6.61;96.06;96462.06;5050048;28;20227;-56
2023/03/27 07:10:20;;;;;;;1.80;1.70;;;;;;;6.43;91.80;96467.00;5050232;28;20290;-55
2023/03/27 07:12:47;;;;;;;1.80;1.70;;;;;;;6.51;94.17;96479.53;5050990;28;20203;-56
2023/03/27 07:15:15;;;;;;;2.60;2.27;;;;;;;6.55;91.02;96475.72;5050468;28;21683;-55
2023/03/27 07:17:43;;;;;;;2.67;2.10;;;;;;;6.47;90.58;96488.59;5048726;28;20202;-55
2023/03/27 07:20:11;;;;;;;3.53;1.63;;;;;;;6.52;92.33;96488.25;5048015;28;20215;-55
2023/03/27 07:22:38;;;;;;;2.20;2.10;;;;;;;6.40;94.30;96495.28;5049981;28;20199;-56
2023/03/27 07:25:07;;;;;;;3.03;2.60;;;;;;;6.38;91.63;96495.41;5052462;28;20538;-55
2023/03/27 07:27:34;;;;;;;4.10;2.30;;;;;;;6.43;92.49;96502.94;5053854;28;20292;-56
2023/03/27 07:30:01;;;;;;;2.47;2.13;;;;;;;6.46;90.17;96510.56;5053277;28;20199;-56
2023/03/27 07:32:28;;;;;;;2.80;2.47;;;;;;;6.46;91.41;96513.19;5054042;28;20199;-56
2023/03/27 07:34:56;;;;;;;3.10;2.80;;;;;;;6.40;86.60;96526.81;5054041;28;20218;-55
2023/03/27 07:37:23;;;;;;;2.83;2.53;;;;;;;6.41;86.84;96529.31;5052878;28;20196;-56
2023/03/27 07:39:52;;;;;;;3.23;2.70;;;;;;;6.28;83.75;96538.25;5053114;28;20665;-56
2023/03/27 07:42:19;;;;;;;3.63;3.23;;;;;;;6.36;87.25;96543.75;5053490;28;20627;-54
2023/03/27 07:44:46;;;;;;;3.77;2.90;;;;;;;6.44;87.34;96547.47;5053277;28;20562;-55
2023/03/27 07:47:13;;;;;;;7.27;2.93;;;;;;;6.49;79.97;96549.72;5053012;28;20242;-55
2023/03/27 07:49:41;;;;;;;5.83;3.17;;;;;;;6.64;81.10;96552.94;5051806;28;20199;-56
2023/03/27 07:52:09;;;;;;;4.67;3.17;;;;;;;6.91;81.32;96558.63;5053584;28;20211;-56
2023/03/27 07:54:36;;;;;;;4.77;3.40;;;;;;;6.93;78.51;96562.81;5053490;28;20207;-56
2023/03/27 07:57:03;;;;;;;4.70;3.00;;;;;;;7.10;77.41;96571.13;5053568;28;20207;-56
2023/03/27 07:59:32;;;;;;;4.37;3.40;;;;;;;7.10;76.03;96579.03;5052725;28;20735;-54
2023/03/27 08:02:00;;;;;;;4.30;3.40;;;;;;;6.94;73.77;96574.97;5052204;28;20280;-57
2023/03/27 08:04:27;;;;;;;3.60;3.30;;;;;;;6.93;76.39;96577.75;5052751;28;20242;-55
2023/03/27 08:06:54;;;;;;;5.03;3.17;;;;;;;6.93;74.88;96591.72;5051753;28;20227;-56
2023/03/27 08:09:25;;;;;;;6.47;3.30;;;;;;;6.83;74.49;96589.97;5052352;28;20245;-58
2023/03/27 08:11:52;;;;;;;3.60;3.30;;;;;;;6.64;72.43;96593.19;5053072;28;20207;-58
2023/03/27 08:14:19;;;;;;;6.43;3.40;;;;;;;6.81;74.60;96603.22;5053168;28;20225;-56
2023/03/27 08:16:45;;;;;;;4.97;3.57;;;;;;;6.82;74.21;96599.63;5059750;28;20206;-56
2023/03/27 08:19:13;;;;;;;4.70;3.47;;;;;;;6.80;74.27;96617.28;5062173;28;20188;-56
2023/03/27 08:21:39;;;;;;;4.13;3.27;;;;;;;6.83;73.50;96609.19;5065164;28;20245;-55
2023/03/27 08:24:10;;;;;;;6.37;3.30;;;;;;;6.83;73.58;96629.38;5055424;28;20207;-57
2023/03/27 08:26:38;;;;;;;3.17;2.87;;;;;;;6.72;72.36;96638.09;5051785;28;20191;-56
2023/03/27 08:29:06;;;;;;;3.77;3.30;;;;;;;6.62;73.64;96639.78;5052998;28;20225;-54
2023/03/27 08:31:34;;;;;;;3.50;3.00;;;;;;;6.60;74.13;96646.94;5052779;28;20597;-55
2023/03/27 08:34:00;;;;;;;5.23;3.57;;;;;;;6.39;73.92;96659.94;5051881;28;20264;-54
2023/03/27 08:36:27;;;;;;;6.37;4.30;;;;;;;6.41;74.08;96665.06;5051972;28;20227;-55
2023/03/27 08:38:56;;;;;;;6.40;3.70;;;;;;;6.39;79.28;96659.09;5053105;28;20272;-55
2023/03/27 08:41:29;;;;;;;4.93;3.00;;;;;;;6.47;76.98;96669.84;5052348;28;20198;-55
2023/03/27 08:43:59;;;;;;;3.97;3.13;;;;;;;6.46;76.38;96665.53;5052781;28;20624;-55
2023/03/27 08:46:27;;;;;;;3.70;3.20;;;;;;;6.54;78.19;96670.22;5051581;28;20239;-55
2023/03/27 08:48:57;;;;;;;6.40;3.40;;;;;;;6.54;75.55;96673.69;5052439;28;20215;-56
2023/03/27 08:51:26;;;;;;;3.67;3.27;;;;;;;6.61;75.12;96682.75;5051983;28;20241;-56
2023/03/27 08:53:57;;;;;;;3.40;3.10;;;;;;;6.64;74.36;96679.06;5052846;28;20215;-55
2023/03/27 08:56:27;;;;;;;5.67;4.17;;;;;;;6.70;72.98;96674.16;5052188;28;20199;-54
2023/03/27 08:58:59;;;;;;;4.47;3.53;;;;;;;6.84;73.68;96673.09;5052260;28;20572;-55
2023/03/27 09:01:29;;;;;;;6.27;3.43;;;;;;;6.92;73.83;96674.19;5050829;28;20191;-55
2023/03/27 09:04:01;;;;;;;6.20;4.17;;;;;;;7.04;74.64;96682.91;5052711;28;20203;-55
2023/03/27 09:06:36;;;;;;;6.30;3.90;;;;;;;7.11;73.81;96691.13;5052285;28;20290;-55
2023/03/27 09:09:07;;;;;;;5.50;3.53;;;;;;;6.98;72.63;96689.47;5052490;28;20291;-56
2023/03/27 09:11:44;;;;;;;7.43;3.90;;;;;;;6.85;73.10;96699.25;5052130;28;20200;-54
2023/03/27 09:14:22;;;;;;;4.20;3.47;;;;;;;6.83;75.00;96700.34;5052046;28;20238;-54
2023/03/27 09:16:50;;;;;;;5.93;3.83;;;;;;;6.71;73.94;96696.88;5051864;28;20217;-55
2023/03/27 09:19:22;;;;;;;6.00;3.67;;;;;;;6.48;73.40;96705.69;5052020;28;20297;-55
2023/03/27 09:21:51;;;;;;;5.47;3.70;;;;;;;6.47;74.49;96719.75;5051372;28;20590;-56
2023/03/27 09:24:27;;;;;;;4.70;3.37;;;;;;;6.53;72.18;96721.06;5051502;28;20752;-54
2023/03/27 09:26:56;;;;;;;4.50;3.50;;;;;;;6.52;75.69;96729.94;5050907;28;20340;-52
2023/03/27 09:29:28;;;;;;;4.50;3.50;;;;;;;6.44;73.29;96730.50;5052218;28;20516;-54
2023/03/27 09:31:58;;;;;;;4.10;3.30;;;;;;;6.54;74.64;96747.25;5051108;28;20641;-54
2023/03/27 09:34:26;;;;;;;6.43;3.93;;;;;;;6.50;76.02;96740.53;5051799;28;20204;-54
2023/03/27 09:36:54;;;;;;;3.77;3.30;;;;;;;6.53;75.71;96749.97;5049674;28;20207;-54
2023/03/27 09:39:26;;;;;;;9.80;5.07;;;;;;;6.62;73.90;96755.38;5051512;28;20195;-53
2023/03/27 09:41:55;;;;;;;6.70;4.33;;;;;;;6.61;74.49;96758.97;5052832;28;20203;-53
2023/03/27 09:44:27;;;;;;;4.33;3.50;;;;;;;6.68;71.93;96765.44;5054206;28;20264;-53
2023/03/27 09:46:56;;;;;;;4.33;3.40;;;;;;;6.63;73.40;96758.81;5053586;28;20254;-54
2023/03/27 09:49:23;;;;;;;5.33;3.13;;;;;;;6.60;73.23;96765.16;5057516;28;20215;-54
2023/03/27 09:51:52;;;;;;;4.10;3.40;;;;;;;6.60;72.26;96761.69;5056886;28;20611;-53
2023/03/27 09:54:21;;;;;;;4.90;3.40;;;;;;;6.58;71.27;96764.44;5056145;28;20215;-54
2023/03/27 09:56:52;;;;;;;5.97;3.40;;;;;;;6.60;69.64;96766.94;5056561;28;20206;-56
2023/03/27 09:59:26;;;;;;;6.47;2.90;;;;;;;6.66;71.15;96767.31;5053924;28;20195;-53
2023/03/27 10:01:56;;;;;;;6.07;3.40;;;;;;;6.69;71.17;96771.53;5053120;28;20195;-54
2023/03/27 10:04:24;;;;;;;5.13;3.20;;;;;;;6.78;70.33;96776.91;5052182;28;20218;-55
2023/03/27 10:07:05;;;;;;;4.40;3.40;;;;;;;6.93;70.11;96770.50;5051274;28;20211;-54
2023/03/27 10:09:34;;;;;;;5.40;3.43;;;;;;;7.24;72.65;96776.84;5051474;28;20206;-54
2023/03/27 10:12:08;;;;;;;7.20;3.27;;;;;;;7.35;70.70;96781.25;5050214;28;20203;-53
2023/03/27 10:14:40;;;;;;;5.60;3.80;;;;;;;7.51;70.89;96782.56;5050345;28;20238;-54
2023/03/27 10:17:10;;;;;;;3.80;3.40;;;;;;;7.64;68.74;96795.59;5050081;28;20545;-55
2023/03/27 10:19:40;;;;;;;6.30;2.80;;;;;;;7.80;70.14;96795.22;5050744;28;20231;-54
2023/03/27 10:22:17;;;;;;;5.17;3.00;;;;;;;7.77;67.74;96796.31;5050443;28;20277;-54
2023/03/27 10:24:46;;;;;;;6.37;3.43;;;;;;;7.71;68.98;96799.44;5050461;28;20195;-54
2023/03/27 10:27:19;;;;;;;4.17;3.20;;;;;;;7.84;69.49;96802.75;5051267;28;20215;-54
2023/03/27 10:29:47;;;;;;;7.87;3.30;;;;;;;7.75;67.35;96806.13;5051287;28;20531;-53
2023/03/27 10:32:14;;;;;;;5.13;3.17;;;;;;;7.71;68.55;96807.31;5050176;28;20199;-55
2023/03/27 10:34:52;;;;;;;6.33;3.30;;;;;;;7.59;66.91;96810.91;5051292;28;20203;-54
2023/03/27 10:37:22;;;;;;;3.90;3.27;;;;;;;7.59;66.72;96821.44;5051134;28;20523;-54
2023/03/27 10:39:48;;;;;;;3.30;3.00;;;;;;;7.61;67.95;96816.91;5050775;28;20210;-55
2023/03/27 10:42:17;;;;;;;5.07;3.40;;;;;;;7.73;71.46;96823.81;5049722;28;20262;-54
2023/03/27 10:44:44;;;;;;;3.50;3.20;;;;;;;7.83;64.08;96829.22;5051053;28;20314;-53
2023/03/27 10:47:18;;;;;;;5.70;3.40;;;;;;;7.75;65.06;96832.47;5055611;28;20275;-59
2023/03/27 10:49:49;;;;;;;4.93;3.00;;;;;;;7.82;66.45;96827.53;5059528;28;20194;-60
2023/03/27 10:52:21;;;;;;;6.27;3.10;;;;;;;7.98;66.99;96827.97;5056431;28;20191;-54
2023/03/27 10:54:57;;;;;;;5.33;3.23;;;;;;;8.11;63.12;96833.97;5056646;28;20233;-55
2023/03/27 10:57:26;;;;;;;4.13;2.87;;;;;;;8.11;65.11;96828.69;5062840;28;20203;-55
2023/03/27 10:59:55;;;;;;;5.37;3.30;;;;;;;8.60;64.87;96828.19;5069664;28;20207;-55
2023/03/27 11:02:27;;;;;;;4.93;2.77;;;;;;;8.86;61.71;96832.13;5077445;28;20214;-55
2023/03/27 11:04:58;;;;;;;5.13;2.83;;;;;;;8.80;62.05;96831.81;5076426;28;20180;-56
2023/03/27 11:07:32;;;;;;;3.27;2.90;;;;;;;8.84;62.39;96838.50;5076177;28;20199;-55
2023/03/27 11:10:03;;;;;;;4.20;2.80;;;;;;;8.95;62.93;96841.94;5061069;28;20199;-57
2023/03/27 11:12:30;;;;;;;4.23;2.50;;;;;;;8.86;56.58;96842.69;5055414;28;20297;-55
2023/03/27 11:15:00;;;;;;;3.17;2.30;;;;;;;8.89;57.15;96845.06;5053889;28;20314;-55
2023/03/27 11:17:33;;;;;;;4.13;2.40;;;;;;;8.96;57.23;96848.84;5054144;28;20292;-55
2023/03/27 11:20:06;;;;;;;3.23;2.60;;;;;;;8.98;60.37;96857.50;5054108;28;20203;-55
2023/03/27 11:22:35;;;;;;;4.50;2.73;;;;;;;8.93;58.04;96846.47;5054107;28;20241;-55
2023/03/27 11:25:04;;;;;;;4.87;2.37;;;;;;;8.97;57.32;96854.97;5054044;28;20228;-55
2023/03/27 11:27:38;;;;;;;2.60;2.33;;;;;;;8.82;56.35;96859.72;5053590;28;20249;-55
2023/03/27 11:30:25;;;;;;;3.17;2.17;;;;;;;8.87;57.58;96864.59;5054205;28;20207;-56
2023/03/27 11:33:01;;;;;;;3.60;2.33;;;;;;;8.93;57.00;96864.94;5054286;28;20207;-56
2023/03/27 11:35:33;;;;;;;2.87;2.23;;;;;;;8.95;55.16;96870.09;5053741;28;20502;-57
2023/03/27 11:38:02;;;;;;;5.53;3.23;;;;;;;8.95;56.61;96865.66;5052898;28;20219;-55
2023/03/27 11:40:34;;;;;;;4.23;2.87;;;;;;;9.11;56.22;96867.00;5054095;28;20203;-56
2023/03/27 11:43:03;;;;;;;3.90;2.70;;;;;;;8.95;57.73;96867.47;5053821;28;20203;-55
2023/03/27 11:45:49;;;;;;;3.87;2.70;;;;;;;8.93;55.92;96879.91;5054097;28;20427;-55
2023/03/27 11:48:32;;;;;;;3.63;2.50;;;;;;;8.95;55.11;96868.31;5053662;28;20237;-56